createdAt,value
2022-12-21T00:04:56.348Z,8.80
2022-12-21T00:11:01.339Z,8.80
2022-12-21T00:17:03.126Z,8.80
2022-12-21T00:23:04.938Z,8.80
2022-12-21T00:29:07.425Z,8.80
2022-12-21T00:35:09.576Z,8.80
2022-12-21T00:41:16.396Z,8.80
2022-12-21T00:47:18.111Z,8.80
2022-12-21T00:53:20.238Z,8.80
2022-12-21T00:59:22.225Z,8.80
2022-12-21T01:05:24.279Z,8.80
2022-12-21T01:11:26.244Z,8.80
2022-12-21T01:17:28.050Z,8.80
2022-12-21T01:23:30.175Z,8.80
2022-12-21T01:29:31.941Z,8.80
2022-12-21T01:35:33.660Z,8.80
2022-12-21T01:41:35.377Z,8.80
2022-12-21T01:47:49.982Z,8.80
2022-12-21T01:53:56.693Z,8.80
2022-12-21T02:00:00.997Z,8.70
2022-12-21T02:06:04.858Z,8.70
2022-12-21T02:12:10.175Z,8.70
2022-12-21T02:18:51.134Z,8.70
2022-12-21T02:25:30.747Z,8.70
2022-12-21T02:31:51.257Z,8.70
2022-12-21T02:38:02.664Z,8.70
2022-12-21T02:44:38.802Z,8.70
2022-12-21T02:50:45.203Z,8.60
2022-12-21T02:56:46.980Z,8.50
2022-12-21T03:03:14.506Z,8.60
2022-12-21T03:09:42.655Z,8.60
2022-12-21T03:15:53.499Z,8.70
2022-12-21T03:22:02.731Z,8.60
2022-12-21T03:28:13.583Z,8.60
2022-12-21T03:34:33.762Z,8.50
2022-12-21T03:40:39.524Z,8.50
2022-12-21T03:46:51.853Z,8.50
2022-12-21T03:53:02.987Z,8.50
2022-12-21T03:59:07.317Z,8.40
2022-12-21T04:05:21.081Z,8.50
2022-12-21T04:11:41.785Z,8.40
2022-12-21T04:17:45.315Z,8.40
2022-12-21T04:24:05.888Z,8.30
2022-12-21T04:30:08.319Z,8.30
2022-12-21T04:36:28.572Z,8.40
2022-12-21T04:42:30.371Z,8.40
2022-12-21T04:48:32.345Z,8.40
2022-12-21T04:54:34.083Z,8.40
2022-12-21T05:00:35.896Z,8.40
2022-12-21T05:06:37.716Z,8.40
2022-12-21T05:12:39.440Z,8.30
2022-12-21T05:18:41.503Z,8.30
2022-12-21T05:24:46.397Z,8.40
2022-12-21T05:30:48.147Z,8.40
2022-12-21T05:36:49.907Z,8.30
2022-12-21T05:42:51.598Z,8.30
2022-12-21T05:48:55.635Z,8.30
2022-12-21T05:54:57.402Z,8.20
2022-12-21T06:01:03.588Z,8.20
2022-12-21T06:07:05.289Z,8.20
2022-12-21T06:13:07.383Z,8.30
2022-12-21T06:19:09.284Z,8.30
2022-12-21T06:25:11.058Z,8.30
2022-12-21T06:31:14.152Z,8.20
2022-12-21T06:37:15.973Z,8.20
2022-12-21T06:43:17.730Z,8.20
2022-12-21T06:49:19.487Z,8.20
2022-12-21T06:55:21.289Z,8.20
2022-12-21T07:01:23.127Z,8.20
2022-12-21T07:07:25.204Z,8.10
2022-12-21T07:13:28.022Z,8.20
2022-12-21T07:19:30.734Z,8.10
2022-12-21T07:25:32.943Z,8.10
2022-12-21T07:31:34.801Z,8.10
2022-12-21T07:37:36.615Z,8.10
2022-12-21T07:43:39.040Z,8.10
2022-12-21T07:49:40.792Z,8.10
2022-12-21T07:55:42.692Z,8.00
2022-12-21T08:01:44.799Z,8.00
2022-12-21T08:07:48.414Z,8.00
2022-12-21T08:13:50.268Z,8.10
2022-12-21T08:19:52.012Z,8.10
2022-12-21T08:25:53.773Z,8.10
2022-12-21T08:31:55.598Z,8.00
2022-12-21T08:37:57.395Z,7.90
2022-12-21T08:43:59.156Z,7.90
2022-12-21T08:50:00.960Z,7.90
2022-12-21T08:56:02.910Z,7.80
2022-12-21T09:02:05.039Z,7.90
2022-12-21T09:08:06.914Z,7.90
2022-12-21T09:14:08.715Z,8.00
2022-12-21T09:20:10.671Z,8.00
2022-12-21T09:26:13.199Z,8.00
2022-12-21T09:32:15.044Z,8.00
2022-12-21T09:38:16.836Z,8.00
2022-12-21T09:44:45.544Z,8.00
2022-12-21T09:51:06.672Z,8.00
2022-12-21T09:57:13.090Z,8.10
2022-12-21T10:03:23.557Z,8.10
2022-12-21T10:09:34.750Z,8.10
2022-12-21T10:16:01.683Z,8.10
2022-12-21T10:22:33.194Z,8.10
2022-12-21T10:28:43.257Z,8.00
2022-12-21T10:34:49.085Z,8.10
2022-12-21T10:40:56.064Z,8.10
2022-12-21T10:46:58.303Z,8.10
2022-12-21T10:53:16.865Z,8.30
2022-12-21T10:59:25.419Z,8.20
2022-12-21T11:05:29.445Z,8.10
2022-12-21T11:11:34.404Z,8.10
2022-12-21T11:17:36.398Z,8.10
2022-12-21T11:23:38.193Z,8.10
2022-12-21T11:29:39.884Z,8.20
2022-12-21T11:36:07.458Z,8.10
2022-12-21T11:42:17.776Z,8.10
2022-12-21T11:48:37.144Z,8.00
2022-12-21T11:54:55.540Z,8.10
2022-12-21T12:01:29.999Z,8.10
2022-12-21T12:08:06.897Z,8.10
2022-12-21T12:14:17.648Z,8.00
2022-12-21T12:20:49.979Z,8.10
2022-12-21T12:27:14.238Z,8.10
2022-12-21T12:33:34.648Z,8.10
2022-12-21T12:40:16.045Z,8.20
2022-12-21T12:46:20.900Z,8.20
2022-12-21T12:52:39.048Z,8.30
2022-12-21T12:59:08.416Z,8.30
2022-12-21T13:05:35.739Z,8.30
2022-12-21T13:12:05.433Z,8.30
2022-12-21T13:18:15.426Z,8.30
2022-12-21T13:24:45.535Z,8.20
2022-12-21T13:30:50.257Z,8.10
2022-12-21T13:36:52.052Z,8.10
2022-12-21T13:43:18.622Z,8.10
2022-12-21T13:49:32.386Z,8.10
2022-12-21T13:55:51.109Z,8.00
2022-12-21T14:02:21.851Z,8.00
2022-12-21T14:08:47.955Z,7.90
2022-12-21T14:15:16.759Z,7.80
2022-12-21T14:21:25.060Z,7.70
2022-12-21T14:27:26.922Z,7.70
2022-12-21T14:33:37.190Z,7.60
2022-12-21T14:39:38.969Z,7.60
2022-12-21T14:45:43.779Z,7.50
2022-12-21T14:51:51.880Z,7.40
2022-12-21T14:57:54.878Z,7.30
2022-12-21T15:04:00.413Z,7.30
2022-12-21T15:10:27.149Z,7.30
2022-12-21T15:16:29.826Z,7.30
2022-12-21T15:22:46.381Z,7.30
2022-12-21T15:28:49.772Z,7.30
2022-12-21T15:34:58.197Z,7.20
2022-12-21T15:41:03.338Z,7.20
2022-12-21T15:47:20.299Z,7.10
2022-12-21T15:53:25.335Z,7.00
2022-12-21T15:59:32.887Z,7.00
2022-12-21T16:05:35.034Z,7.00
2022-12-21T16:18:09.312Z,7.20
2022-12-21T16:24:11.355Z,7.30
2022-12-21T16:30:13.564Z,7.30
2022-12-21T16:36:23.612Z,7.40
2022-12-21T16:42:27.731Z,7.30
2022-12-21T16:48:51.967Z,7.30
2022-12-21T16:54:53.935Z,7.20
2022-12-21T17:00:55.784Z,7.20
2022-12-21T17:07:08.932Z,7.10
2022-12-21T17:13:17.613Z,7.00
2022-12-21T17:19:22.063Z,6.90
2022-12-21T17:25:24.110Z,6.90
2022-12-21T17:31:26.128Z,6.90
2022-12-21T17:37:27.963Z,6.90
2022-12-21T17:43:29.694Z,6.90
2022-12-21T17:49:31.463Z,6.90
2022-12-21T17:55:33.281Z,6.80
2022-12-21T18:01:35.565Z,6.70
2022-12-21T18:07:37.387Z,6.50
2022-12-21T18:13:39.703Z,6.50
2022-12-21T18:19:42.367Z,6.50
2022-12-21T18:25:45.320Z,6.50
2022-12-21T18:31:48.606Z,6.50
2022-12-21T18:37:50.828Z,6.60
2022-12-21T18:43:52.554Z,6.70
2022-12-21T18:49:54.871Z,6.70
2022-12-21T18:55:56.695Z,6.80
2022-12-21T19:01:59.924Z,6.90
2022-12-21T19:08:01.881Z,6.80
2022-12-21T19:14:03.642Z,6.90
2022-12-21T19:20:06.363Z,6.90
2022-12-21T19:26:10.140Z,6.90
2022-12-21T19:32:12.087Z,6.90
2022-12-21T19:38:26.704Z,6.90
2022-12-21T19:44:34.249Z,6.90
2022-12-21T19:50:36.061Z,7.10
2022-12-21T19:56:37.838Z,7.20
2022-12-21T20:02:43.926Z,7.10
2022-12-21T20:08:50.989Z,7.10
2022-12-21T20:14:53.361Z,7.10
2022-12-21T20:20:55.326Z,7.10
2022-12-21T20:27:00.067Z,7.10
2022-12-21T20:33:05.327Z,7.00
2022-12-21T20:39:16.529Z,7.00
2022-12-21T20:45:24.149Z,6.90
2022-12-21T20:51:26.941Z,6.90
2022-12-21T20:57:28.618Z,6.90
2022-12-21T21:03:32.106Z,7.00
2022-12-21T21:09:35.050Z,7.00
2022-12-21T21:15:37.519Z,7.00
2022-12-21T21:21:58.016Z,6.90
2022-12-21T21:28:13.667Z,6.90
2022-12-21T21:34:15.653Z,6.90
2022-12-21T21:40:36.277Z,6.90
2022-12-21T21:46:38.397Z,6.80
2022-12-21T21:52:40.732Z,6.80
2022-12-21T21:58:42.519Z,6.90
2022-12-21T22:04:47.690Z,6.90
2022-12-21T22:10:49.632Z,6.90
2022-12-21T22:23:36.533Z,6.80
2022-12-21T22:30:03.171Z,6.90
2022-12-21T22:36:23.645Z,6.90
2022-12-21T22:42:28.067Z,7.00
2022-12-21T22:48:30.084Z,7.00
2022-12-21T22:54:31.831Z,7.00
2022-12-21T23:00:33.615Z,7.00
2022-12-21T23:06:35.391Z,7.00
2022-12-21T23:12:55.752Z,7.00
2022-12-21T23:18:57.501Z,7.10
2022-12-21T23:25:17.869Z,7.00
2022-12-21T23:31:44.412Z,7.10
2022-12-21T23:38:04.747Z,7.10
2022-12-21T23:44:06.536Z,7.20
2022-12-21T23:50:30.144Z,7.20
2022-12-21T23:56:51.244Z,7.20
